Terminal Aerodrome Forecast
Issued by NWS

Home | Current Version | Previous Version | Text Only | Print | Product List | Glossary On
Versions: 1 2 3 4 5 6 7 8 9 10 11 12 13 14 15 16 17 18 19 20 21 22 23 24 25 26 27 28
000
FTUS41 KBTV 150200 AAA
TAFMPV
TAF AMD
KMPV 150208Z 1502/1524 00000KT P6SM FEW030
      TEMPO 1502/1504 BKN025
     FM150400 00000KT 4SM BR FEW001
      TEMPO 1504/1507 1SM BR SCT001
     FM150700 00000KT 1/2SM FG VV001
     FM151300 29005KT P6SM SCT035=

USA.gov is the U.S. government's official web portal to all federal, state and local government web resources and services.